Portada
METAR-TAF:

METAR-TAF

Aeroports :

Sanford-Lee County Regional Airport

Sanford, Carolina del Nord, Estats Units d'Amèrica

latitud: 35-34-57N, longitud: 079-06-05W, altitud: 75 m

Observació

L'informe es va fer fa 9 minuts, a les 01:15 UTC
Vent 3 kt del Sud
Temperatura 23°C
Humitat 100%
Pressió 1016 hPa
Visibilitat: 16.1 km
Cel clar

METAR: KTTA 110115Z AUTO 18003KT 10SM CLR 23/23 A2999 RMK AO2 T02310231

Hora: 21:24 (01:24 UTC)


TAF: manca

Observacions i pronòstics meteorològics de més de 4000 aeroports (METAR i TAF).

Les estacions disponibles són els punts grocs i vermells al mapa.

Posi el ratolí al punt desitjat per veure el nom de l'estació.

Feu clic per veure les observacions i els pronòstics meteorològics.

Per canviar el mapa: feu clic els botons verds amb una creu de color negre per apropar; al botó verd amb un guió per allunyar la imatge; o en les fletxes verdes per a mapes adjacents.


METAR-TAF: